Time,TemperatureF,DewpointF,PressureIn,WindDirection,WindDirectionDegrees,WindSpeedMPH,WindSpeedGustMPH,Humidity,HourlyPrecipIn,Conditions,Clouds,dailyrainin,SoftwareType,DateUTC
2013-01-30 00:02:00,30.0,25.0,29.74,NNE,13,1.0,4.0,81,0.00,,,0.07,,2013-01-30 06:02:00,
2013-01-30 00:11:00,30.0,25.0,29.74,NNE,13,1.0,4.0,81,0.00,,,0.07,,2013-01-30 06:11:00,
2013-01-30 00:21:00,30.0,25.0,29.72,NW,324,1.0,6.0,82,0.00,,,0.07,,2013-01-30 06:21:00,
2013-01-30 00:32:00,30.0,25.0,29.72,NNE,30,1.0,7.0,82,0.00,,,0.07,,2013-01-30 06:32:00,
2013-01-30 00:42:00,30.0,25.0,29.72,NNE,30,1.0,7.0,82,0.00,,,0.07,,2013-01-30 06:42:00,
2013-01-30 00:51:00,30.0,25.0,29.71,NE,44,1.0,5.0,83,0.00,,,0.07,,2013-01-30 06:51:00,
2013-01-30 01:02:00,30.0,25.0,29.73,ENE,76,2.0,6.0,82,0.00,,,0.07,,2013-01-30 07:02:00,
2013-01-30 01:11:00,30.0,25.0,29.73,ENE,76,2.0,6.0,82,0.00,,,0.07,,2013-01-30 07:11:00,
2013-01-30 01:21:00,30.0,25.0,29.72,North,349,2.0,6.0,83,0.00,,,0.07,,2013-01-30 07:21:00,
2013-01-30 01:32:00,29.0,25.0,29.72,NE,48,1.0,5.0,83,0.00,,,0.07,,2013-01-30 07:32:00,
2013-01-30 01:41:00,29.0,25.0,29.72,NE,48,1.0,5.0,83,0.00,,,0.07,,2013-01-30 07:41:00,
2013-01-30 01:52:00,29.0,24.0,29.69,NNE,19,1.0,8.0,82,0.00,,,0.07,,2013-01-30 07:52:00,
2013-01-30 02:01:00,28.0,23.0,29.67,NNE,25,2.0,7.0,81,0.00,,,0.07,,2013-01-30 08:01:00,
2013-01-30 02:11:00,28.0,23.0,29.67,NNE,25,2.0,7.0,81,0.00,,,0.07,,2013-01-30 08:11:00,
2013-01-30 02:21:00,28.0,23.0,29.67,North,5,2.0,8.0,80,0.00,,,0.07,,2013-01-30 08:21:00,
2013-01-30 02:32:00,28.0,22.0,29.67,ENE,73,2.0,9.0,79,0.00,,,0.07,,2013-01-30 08:32:00,
2013-01-30 02:42:00,28.0,22.0,29.67,ENE,73,2.0,9.0,79,0.00,,,0.07,,2013-01-30 08:42:00,
2013-01-30 02:52:00,28.0,22.0,29.67,ENE,73,2.0,9.0,79,0.00,,,0.07,,2013-01-30 08:52:00,
2013-01-30 03:01:00,27.0,22.0,29.68,North,9,2.0,5.0,80,0.00,,,0.07,,2013-01-30 09:01:00,
2013-01-30 03:11:00,27.0,22.0,29.68,North,9,2.0,5.0,80,0.00,,,0.07,,2013-01-30 09:11:00,
2013-01-30 03:21:00,27.0,22.0,29.65,NE,37,2.0,8.0,80,0.00,,,0.07,,2013-01-30 09:21:00,
2013-01-30 03:32:00,27.0,21.0,29.65,NNW,337,2.0,8.0,79,0.00,,,0.07,,2013-01-30 09:32:00,
2013-01-30 03:42:00,27.0,21.0,29.65,NNW,337,2.0,8.0,79,0.00,,,0.07,,2013-01-30 09:42:00,
2013-01-30 03:51:00,27.0,21.0,29.65,NE,50,2.0,8.0,79,0.00,,,0.07,,2013-01-30 09:51:00,
2013-01-30 04:01:00,27.0,22.0,29.66,NE,41,2.0,8.0,80,0.00,,,0.07,,2013-01-30 10:01:00,
2013-01-30 04:11:00,27.0,22.0,29.66,NE,41,2.0,8.0,80,0.00,,,0.07,,2013-01-30 10:11:00,
2013-01-30 04:21:00,27.0,22.0,29.65,NNE,20,1.0,6.0,80,0.00,,,0.07,,2013-01-30 10:21:00,
2013-01-30 04:32:00,27.0,21.0,29.66,North,5,3.0,10.0,77,0.00,,,0.07,,2013-01-30 10:32:00,
2013-01-30 04:41:00,27.0,21.0,29.66,North,5,3.0,10.0,77,0.00,,,0.07,,2013-01-30 10:41:00,
2013-01-30 04:52:00,27.0,20.0,29.66,NNE,16,3.0,7.0,76,0.00,,,0.07,,2013-01-30 10:52:00,
2013-01-30 05:02:00,27.0,20.0,29.66,NNE,16,3.0,7.0,76,0.00,,,0.07,,2013-01-30 11:02:00,
2013-01-30 05:11:00,27.0,20.0,29.66,NNE,16,3.0,7.0,76,0.00,,,0.07,,2013-01-30 11:11:00,
2013-01-30 05:22:00,26.0,19.0,29.67,ENE,62,1.0,4.0,76,0.00,,,0.07,,2013-01-30 11:22:00,
2013-01-30 05:33:00,26.0,19.0,29.67,ENE,62,1.0,4.0,76,0.00,,,0.07,,2013-01-30 11:33:00,
2013-01-30 05:42:00,26.0,19.0,29.67,ENE,62,1.0,4.0,76,0.00,,,0.07,,2013-01-30 11:42:00,
2013-01-30 05:52:00,26.0,20.0,29.67,North,355,1.0,3.0,77,0.00,,,0.07,,2013-01-30 11:52:00,
2013-01-30 06:02:00,26.0,20.0,29.66,North,5,2.0,4.0,78,0.00,,,0.07,,2013-01-30 12:02:00,
2013-01-30 06:12:00,26.0,20.0,29.66,North,5,2.0,4.0,78,0.00,,,0.07,,2013-01-30 12:12:00,
2013-01-30 06:22:00,26.0,20.0,29.65,NE,55,2.0,5.0,78,0.00,,,0.07,,2013-01-30 12:22:00,
2013-01-30 06:33:00,26.0,20.0,29.65,NNE,12,1.0,5.0,78,0.00,,,0.07,,2013-01-30 12:33:00,
2013-01-30 06:42:00,26.0,20.0,29.65,NNE,12,1.0,5.0,78,0.00,,,0.07,,2013-01-30 12:42:00,
2013-01-30 07:03:00,25.0,20.0,29.65,NE,56,1.0,4.0,81,0.00,,,0.07,,2013-01-30 13:03:00,
2013-01-30 07:12:00,25.0,20.0,29.65,NE,56,1.0,4.0,81,0.00,,,0.07,,2013-01-30 13:12:00,
2013-01-30 07:23:00,25.0,20.0,29.65,NE,54,3.0,8.0,81,0.00,,,0.07,,2013-01-30 13:23:00,
2013-01-30 07:33:00,24.0,19.0,29.65,NNE,17,1.0,6.0,81,0.00,,,0.07,,2013-01-30 13:33:00,
2013-01-30 07:42:00,24.0,19.0,29.65,NNE,17,1.0,6.0,81,0.00,,,0.07,,2013-01-30 13:42:00,
2013-01-30 07:52:00,24.0,19.0,29.65,ENE,65,1.0,4.0,82,0.00,,,0.07,,2013-01-30 13:52:00,
2013-01-30 08:02:00,24.0,20.0,29.65,North,11,2.0,5.0,83,0.00,,,0.07,,2013-01-30 14:02:00,
2013-01-30 08:12:00,24.0,20.0,29.65,North,11,2.0,5.0,83,0.00,,,0.07,,2013-01-30 14:12:00,
2013-01-30 08:22:00,24.0,20.0,29.63,NNE,15,1.0,6.0,83,0.00,,,0.07,,2013-01-30 14:22:00,
2013-01-30 08:33:00,24.0,20.0,29.64,NNE,26,2.0,8.0,84,0.00,,,0.07,,2013-01-30 14:33:00,
2013-01-30 08:42:00,24.0,20.0,29.64,NNE,26,2.0,8.0,84,0.00,,,0.07,,2013-01-30 14:42:00,
2013-01-30 08:52:00,24.0,20.0,29.62,NE,42,3.0,10.0,84,0.00,,,0.07,,2013-01-30 14:52:00,
2013-01-30 09:03:00,23.0,19.0,29.62,NE,41,2.0,9.0,84,0.00,,,0.07,,2013-01-30 15:03:00,
2013-01-30 09:12:00,23.0,19.0,29.62,NE,41,2.0,9.0,84,0.00,,,0.07,,2013-01-30 15:12:00,
2013-01-30 09:23:00,23.0,19.0,29.62,NW,320,3.0,7.0,84,0.00,,,0.07,,2013-01-30 15:23:00,
2013-01-30 09:33:00,23.0,19.0,29.62,North,355,2.0,9.0,84,0.00,,,0.07,,2013-01-30 15:33:00,
2013-01-30 09:43:00,23.0,19.0,29.62,North,355,2.0,9.0,84,0.00,,,0.07,,2013-01-30 15:43:00,
2013-01-30 09:53:00,23.0,19.0,29.62,North,355,2.0,9.0,84,0.00,,,0.07,,2013-01-30 15:53:00,
2013-01-30 10:03:00,23.0,19.0,29.62,NNW,336,5.0,10.0,84,0.00,,,0.07,,2013-01-30 16:03:00,
2013-01-30 10:12:00,23.0,19.0,29.62,NNW,336,5.0,10.0,84,0.00,,,0.07,,2013-01-30 16:12:00,
2013-01-30 10:23:00,23.0,19.0,29.61,North,355,3.0,6.0,84,0.00,,,0.07,,2013-01-30 16:23:00,
2013-01-30 10:32:00,22.0,18.0,29.61,NNW,345,5.0,11.0,85,0.00,,,0.07,,2013-01-30 16:32:00,
2013-01-30 10:42:00,22.0,18.0,29.61,NNW,345,5.0,11.0,85,0.00,,,0.07,,2013-01-30 16:42:00,
2013-01-30 10:52:00,22.0,18.0,29.61,NNW,345,5.0,11.0,85,0.00,,,0.07,,2013-01-30 16:52:00,
2013-01-30 11:02:00,22.0,18.0,29.62,NNE,16,2.0,5.0,85,0.00,,,0.07,,2013-01-30 17:02:00,
2013-01-30 11:12:00,22.0,18.0,29.62,NNE,16,2.0,5.0,85,0.00,,,0.07,,2013-01-30 17:12:00,
2013-01-30 11:22:00,22.0,18.0,29.62,East,88,3.0,9.0,85,0.00,,,0.07,,2013-01-30 17:22:00,
2013-01-30 11:33:00,22.0,18.0,29.62,North,355,2.0,7.0,84,0.00,,,0.07,,2013-01-30 17:33:00,
2013-01-30 11:42:00,22.0,18.0,29.62,North,355,2.0,7.0,84,0.00,,,0.07,,2013-01-30 17:42:00,
2013-01-30 11:53:00,21.0,16.0,29.61,North,9,3.0,11.0,82,0.00,,,0.07,,2013-01-30 17:53:00,
2013-01-30 12:02:00,21.0,16.0,29.61,NNE,22,2.0,8.0,81,0.00,,,0.07,,2013-01-30 18:02:00,
2013-01-30 12:12:00,21.0,16.0,29.61,NNE,22,2.0,8.0,81,0.00,,,0.07,,2013-01-30 18:12:00,
2013-01-30 12:22:00,20.0,15.0,29.61,NNE,17,4.0,10.0,80,0.00,,,0.07,,2013-01-30 18:22:00,
2013-01-30 12:33:00,20.0,15.0,29.61,NNE,17,4.0,10.0,80,0.00,,,0.07,,2013-01-30 18:33:00,
2013-01-30 12:42:00,20.0,15.0,29.61,NNE,17,4.0,10.0,80,0.00,,,0.07,,2013-01-30 18:42:00,
2013-01-30 12:52:00,20.0,15.0,29.61,NNE,17,4.0,10.0,80,0.00,,,0.07,,2013-01-30 18:52:00,
2013-01-30 13:03:00,19.0,14.0,29.62,NNW,339,3.0,8.0,80,0.00,,,0.07,,2013-01-30 19:03:00,
2013-01-30 13:12:00,19.0,14.0,29.62,NNW,339,3.0,8.0,80,0.00,,,0.07,,2013-01-30 19:12:00,
2013-01-30 13:22:00,19.0,14.0,29.62,ENE,78,4.0,7.0,80,0.00,,,0.07,,2013-01-30 19:22:00,
2013-01-30 13:32:00,19.0,14.0,29.62,NNW,338,2.0,7.0,81,0.00,,,0.07,,2013-01-30 19:32:00,
2013-01-30 13:43:00,19.0,14.0,29.62,NNW,338,2.0,7.0,81,0.00,,,0.07,,2013-01-30 19:43:00,
2013-01-30 13:52:00,19.0,14.0,29.62,NE,46,1.0,5.0,82,0.00,,,0.07,,2013-01-30 19:52:00,
2013-01-30 14:03:00,19.0,14.0,29.61,ENE,67,1.0,8.0,81,0.00,,,0.07,,2013-01-30 20:03:00,
2013-01-30 14:12:00,19.0,14.0,29.61,ENE,67,1.0,8.0,81,0.00,,,0.07,,2013-01-30 20:12:00,
2013-01-30 14:22:00,19.0,14.0,29.61,ENE,67,1.0,8.0,81,0.00,,,0.07,,2013-01-30 20:22:00,
2013-01-30 14:33:00,18.0,13.0,29.61,NNW,346,2.0,5.0,82,0.00,,,0.06,,2013-01-30 20:33:00,
2013-01-30 14:42:00,18.0,13.0,29.61,NNW,346,2.0,5.0,82,0.00,,,0.06,,2013-01-30 20:42:00,
2013-01-30 14:53:00,18.0,13.0,29.61,NE,36,2.0,5.0,81,0.00,,,0.06,,2013-01-30 20:53:00,
2013-01-30 15:03:00,18.0,13.0,29.62,NNW,346,2.0,6.0,81,0.00,,,0.06,,2013-01-30 21:03:00,
2013-01-30 15:12:00,18.0,13.0,29.62,NNW,346,2.0,6.0,81,0.00,,,0.06,,2013-01-30 21:12:00,
2013-01-30 15:23:00,18.0,13.0,29.62,NE,44,2.0,6.0,81,0.00,,,0.06,,2013-01-30 21:23:00,
2013-01-30 15:32:00,18.0,13.0,29.62,NNW,346,0.0,5.0,82,0.00,,,0.04,,2013-01-30 21:32:00,
2013-01-30 15:42:00,18.0,13.0,29.62,NNW,346,0.0,5.0,82,0.00,,,0.04,,2013-01-30 21:42:00,
2013-01-30 15:52:00,18.0,14.0,29.62,NE,34,1.0,6.0,83,0.00,,,0.04,,2013-01-30 21:52:00,
2013-01-30 16:03:00,18.0,14.0,29.62,NE,34,1.0,6.0,83,0.00,,,0.04,,2013-01-30 22:03:00,
2013-01-30 16:12:00,18.0,14.0,29.62,NE,34,1.0,6.0,83,0.00,,,0.04,,2013-01-30 22:12:00,
2013-01-30 16:22:00,18.0,13.0,29.63,North,11,1.0,7.0,80,0.00,,,0.04,,2013-01-30 22:22:00,
2013-01-30 16:32:00,18.0,13.0,29.62,NNW,338,1.0,5.0,80,0.00,,,0.02,,2013-01-30 22:32:00,
2013-01-30 16:42:00,18.0,13.0,29.62,NNW,338,1.0,5.0,80,0.00,,,0.02,,2013-01-30 22:42:00,
2013-01-30 16:52:00,18.0,13.0,29.62,NE,46,1.0,8.0,80,0.00,,,0.02,,2013-01-30 22:52:00,
2013-01-30 17:02:00,17.0,12.0,29.63,North,9,2.0,8.0,80,0.00,,,0.02,,2013-01-30 23:02:00,
2013-01-30 17:12:00,17.0,12.0,29.63,North,9,2.0,8.0,80,0.00,,,0.02,,2013-01-30 23:12:00,
2013-01-30 17:22:00,17.0,12.0,29.63,NE,39,2.0,5.0,80,0.00,,,0.02,,2013-01-30 23:22:00,
2013-01-30 17:32:00,17.0,12.0,29.63,NE,36,2.0,6.0,80,0.00,,,0.01,,2013-01-30 23:32:00,
2013-01-30 17:42:00,17.0,12.0,29.63,NE,36,2.0,6.0,80,0.00,,,0.01,,2013-01-30 23:42:00,
2013-01-30 17:52:00,17.0,12.0,29.63,NE,44,2.0,5.0,80,0.00,,,0.01,,2013-01-30 23:52:00,
2013-01-30 18:02:00,17.0,12.0,29.64,North,11,1.0,7.0,80,0.00,,,0.01,,2013-01-31 00:02:00,
2013-01-30 18:11:00,17.0,12.0,29.64,North,11,1.0,7.0,80,0.00,,,0.01,,2013-01-31 00:11:00,
2013-01-30 18:22:00,17.0,12.0,29.64,NNE,28,2.0,5.0,80,0.00,,,0.01,,2013-01-31 00:22:00,
2013-01-30 18:32:00,17.0,12.0,29.64,NE,35,3.0,6.0,80,0.00,,,0.00,,2013-01-31 00:32:00,
2013-01-30 18:42:00,17.0,12.0,29.64,NE,35,3.0,6.0,80,0.00,,,0.00,,2013-01-31 00:42:00,
2013-01-30 18:52:00,16.0,11.0,29.64,NW,325,2.0,6.0,79,0.00,,,0.00,,2013-01-31 00:52:00,
2013-01-30 19:02:00,16.0,11.0,29.64,NW,321,3.0,5.0,80,0.00,,,0.00,,2013-01-31 01:02:00,
2013-01-30 19:11:00,16.0,11.0,29.64,NW,321,3.0,5.0,80,0.00,,,0.00,,2013-01-31 01:11:00,
2013-01-30 19:21:00,16.0,11.0,29.64,NNE,16,1.0,5.0,82,0.00,,,0.00,,2013-01-31 01:21:00,
2013-01-30 19:32:00,15.0,11.0,29.64,North,351,2.0,6.0,82,0.00,,,0.00,,2013-01-31 01:32:00,
2013-01-30 19:42:00,15.0,11.0,29.64,North,351,2.0,6.0,82,0.00,,,0.00,,2013-01-31 01:42:00,
2013-01-30 19:52:00,15.0,11.0,29.64,North,351,2.0,6.0,82,0.00,,,0.00,,2013-01-31 01:52:00,
2013-01-30 20:01:00,15.0,11.0,29.64,NW,323,2.0,5.0,82,0.00,,,0.00,,2013-01-31 02:01:00,
2013-01-30 20:11:00,15.0,11.0,29.64,NW,323,2.0,5.0,82,0.00,,,0.00,,2013-01-31 02:11:00,
2013-01-30 20:21:00,14.0,10.0,29.64,NNW,342,2.0,5.0,83,0.00,,,0.00,,2013-01-31 02:21:00,
2013-01-30 20:32:00,14.0,10.0,29.64,NNW,331,1.0,4.0,84,0.00,,,0.00,,2013-01-31 02:32:00,
2013-01-30 20:41:00,14.0,10.0,29.64,NNW,331,1.0,4.0,84,0.00,,,0.00,,2013-01-31 02:41:00,
2013-01-30 20:52:00,14.0,10.0,29.64,NNW,331,1.0,4.0,84,0.00,,,0.00,,2013-01-31 02:52:00,
2013-01-30 21:03:00,14.0,10.0,29.64,North,349,1.0,3.0,85,0.00,,,0.00,,2013-01-31 03:03:00,
2013-01-30 21:11:00,14.0,10.0,29.64,North,349,1.0,3.0,85,0.00,,,0.00,,2013-01-31 03:11:00,
2013-01-30 21:21:00,14.0,10.0,29.64,NNW,332,1.0,4.0,85,0.00,,,0.00,,2013-01-31 03:21:00,
2013-01-30 21:32:00,14.0,10.0,29.64,NW,307,2.0,5.0,85,0.00,,,0.00,,2013-01-31 03:32:00,
2013-01-30 21:41:00,14.0,10.0,29.64,NW,307,2.0,5.0,85,0.00,,,0.00,,2013-01-31 03:41:00,
2013-01-30 21:51:00,14.0,10.0,29.64,SW,220,1.0,5.0,85,0.00,,,0.00,,2013-01-31 03:51:00,
2013-01-30 22:02:00,14.0,10.0,29.64,SW,220,1.0,5.0,85,0.00,,,0.00,,2013-01-31 04:02:00,
2013-01-30 22:11:00,14.0,10.0,29.64,SW,220,1.0,5.0,85,0.00,,,0.00,,2013-01-31 04:11:00,
2013-01-30 22:22:00,13.0,10.0,29.64,West,279,0.0,3.0,86,0.00,,,0.00,,2013-01-31 04:22:00,
2013-01-30 22:32:00,13.0,10.0,29.65,NW,317,2.0,4.0,86,0.00,,,0.00,,2013-01-31 04:32:00,
2013-01-30 22:41:00,13.0,10.0,29.65,NW,317,2.0,4.0,86,0.00,,,0.00,,2013-01-31 04:41:00,
2013-01-30 22:51:00,13.0,10.0,29.65,West,277,1.0,5.0,86,0.00,,,0.00,,2013-01-31 04:51:00,
2013-01-30 23:03:00,13.0,10.0,29.65,NNW,342,1.0,4.0,86,0.00,,,0.00,,2013-01-31 05:03:00,
2013-01-30 23:11:00,13.0,10.0,29.65,NNW,342,1.0,4.0,86,0.00,,,0.00,,2013-01-31 05:11:00,
2013-01-30 23:22:00,13.0,9.0,29.65,NNE,30,2.0,5.0,83,0.00,,,0.00,,2013-01-31 05:22:00,
2013-01-30 23:32:00,13.0,9.0,29.65,NNE,30,2.0,5.0,83,0.00,,,0.00,,2013-01-31 05:32:00,
2013-01-30 23:41:00,13.0,9.0,29.65,NNE,20,1.0,4.0,82,0.00,,,0.00,,2013-01-31 05:41:00,
2013-01-30 23:52:00,13.0,9.0,29.65,NNE,20,1.0,4.0,82,0.00,,,0.00,,2013-01-31 05:52:00,